• Join FlightAware (Why Join?)
  • Login
  • US Flag 
06:42PM EDT


 

Airport Tracker/Info


-or-


 

Live Flight TrackerFlight Track Log ✈ SWA193 ✈ 11-Apr-2013 ✈ KFLL - KLAS

Flight Track Log - Related Links

Times and Time Zones

All times are in EDT time to prevent confusion due to time zone crossing. See the SWA193 flight status page for this flight to view local times or setup timezone preferences in your user account.

Time Position Orientation Groundspeed Altitude Reporting Facility
EDT Latitude Longitude Course Direction KTS MPH feet Rate Location/Type
06:58AM 26.0581 -80.1431 93° East 140 161 800  Level Miami Center
06:59AM 26.0567 -80.1108 93° East 201 231 1,700 2,580 Climbing Miami Center
07:00AM 26.0994 -80.0703 40° Northeast 246 283 5,000 2,700 Climbing Miami Center
07:01AM 26.1503 -80.1294 314° West 295 339 7,300 2,340 Climbing Miami Center
07:01AM 26.1647 -80.1436 319° Northwest 307 353 8,000 1,260 Climbing Miami Center
07:02AM 26.2111 -80.2167 305° West 312 359 8,900 960 Climbing Miami Center
07:03AM 26.2492 -80.2758 306° West 300 345 10,000 1,500 Climbing Miami Center
07:04AM 26.3117 -80.3772 305° West 321 369 12,000 2,160 Climbing Miami Center
07:05AM 26.3697 -80.4739 304° West 359 413 14,400 2,640 Climbing Miami Center
07:06AM 26.4214 -80.5800 299° West 391 450 17,300 2,460 Climbing Miami Center
07:07AM 26.4769 -80.6908 299° West 402 463 19,400 2,160 Climbing Miami Center
07:08AM 26.5347 -80.8042 300° West 408 470 21,700 2,100 Climbing Miami Center
07:09AM 26.5919 -80.9175 299° West 423 487 23,700 1,980 Climbing Miami Center
07:10AM 26.6514 -81.0333 300° West 428 493 25,700 1,800 Climbing Miami Center
07:11AM 26.7006 -81.1419 297° West 428 493 27,300 1,560 Climbing Miami Center
07:12AM 26.7425 -81.2692 290° West 433 498 28,900 2,160 Climbing Miami Center
07:13AM 26.7844 -81.4033 289° West 424 488 31,700 2,340 Climbing Miami Center
07:14AM 26.8244 -81.5211 291° West 414 476 33,600 1,620 Climbing Miami Center
07:15AM 26.8583 -81.6389 288° West 409 471 35,000 1,140 Climbing Miami Center
07:16AM 26.8942 -81.7522 290° West 401 461 35,900 420 Climbing Miami Center
07:17AM 26.9300 -81.8678 289° West 395 455 35,900  Level Miami Center
07:18AM 26.9656 -81.9789 290° West 388 447 35,900  Level Miami Center
07:19AM 27.0011 -82.0944 289° West 393 452 35,900  Level Miami Center
07:20AM 27.0389 -82.2033 291° West 388 447 36,000  Climbing Miami Center
07:21AM 27.0664 -82.3050 287° West 389 448 35,900 -60 Descending Miami Center
07:22AM 27.1058 -82.4211 291° West 389 448 35,900  Level Miami Center
07:23AM 27.1369 -82.5344 287° West 389 448 35,900  Level Miami Center
07:24AM 27.1742 -82.6506 290° West 389 448 35,900  Level Miami Center
07:25AM 27.2092 -82.7619 289° West 389 448 35,900  Level Miami Center
07:26AM 27.2442 -82.8758 289° West 389 448 35,900  Level Miami Center
07:27AM 27.2789 -82.9919 289° West 394 453 35,900  Level Miami Center
07:28AM 27.3136 -83.1061 289° West 394 453 35,900  Level Miami Center
07:29AM 27.3503 -83.2225 290° West 389 448 35,900  Level Miami Center
07:30AM 27.3828 -83.3342 288° West 389 448 35,900  Level Miami Center
07:31AM 27.4172 -83.4506 288° West 389 448 35,900  Level Miami Center
07:32AM 27.4517 -83.5625 289° West 389 448 35,900  Level Miami Center
07:33AM 27.4881 -83.6792 289° West 389 448 35,900  Level Miami Center
07:34AM 27.5222 -83.7933 289° West 389 448 35,900  Level Miami Center
07:36AM 27.5778 -83.9764 289° West 392 451 35,900  Level Jacksonville Center
07:37AM 27.6144 -84.0939 289° West 392 451 35,900  Level Jacksonville Center
07:38AM 27.6425 -84.2067 286° West 387 445 35,900  Level Jacksonville Center
07:39AM 27.6789 -84.3219 290° West 387 445 35,900  Level Jacksonville Center
07:40AM 27.7131 -84.4372 289° West 387 445 35,900  Level Jacksonville Center
07:41AM 27.7511 -84.5528 290° West 387 445 35,900  Level Jacksonville Center
07:42AM 27.7850 -84.6658 289° West 387 445 35,900  Level Jacksonville Center
07:43AM 27.8147 -84.7858 286° West 387 445 35,900  Level Jacksonville Center
07:44AM 27.8486 -84.8944 289° West 392 451 35,900  Level Jacksonville Center
07:45AM 27.8800 -85.0150 286° West 382 440 35,900  Level Jacksonville Center
07:46AM 27.9156 -85.1258 290° West 382 440 35,900  Level Jacksonville Center
07:47AM 27.9469 -85.2417 287° West 382 440 35,900  Level Jacksonville Center
07:48AM 27.9950 -85.3533 296° West 390 449 35,900  Level Jacksonville Center
07:49AM 28.0469 -85.4628 298° West 390 449 35,900  Level Jacksonville Center
07:50AM 28.1033 -85.5678 301° West 390 449 35,900  Level Jacksonville Center
07:51AM 28.1553 -85.6728 299° West 385 443 35,900  Level Jacksonville Center
07:52AM 28.2072 -85.7800 299° West 390 449 35,900  Level Jacksonville Center
07:53AM 28.2611 -85.8925 299° West 390 449 35,900  Level Jacksonville Center
07:54AM 28.3128 -85.9928 300° West 390 449 35,900  Level Jacksonville Center
07:55AM 28.3664 -86.1031 299° West 390 449 35,900  Level Jacksonville Center
07:56AM 28.4200 -86.2108 300° West 390 449 35,900  Level Jacksonville Center
07:57AM 28.4717 -86.3142 300° West 390 449 35,900  Level Jacksonville Center
07:58AM 28.5231 -86.4222 298° West 390 449 35,900  Level Jacksonville Center
07:59AM 28.5764 -86.5306 299° West 390 449 35,900  Level Jacksonville Center
08:00AM 28.6294 -86.6411 299° West 395 455 35,900  Level Jacksonville Center
08:01AM 28.6786 -86.7425 299° West 390 449 35,900  Level Jacksonville Center
08:02AM 28.7317 -86.8533 299° West 390 449 35,900  Level Jacksonville Center
08:03AM 28.7803 -86.9594 298° West 395 455 35,900  Level Jacksonville Center
08:04AM 28.8353 -87.0683 300° West 395 455 35,900  Level Jacksonville Center
08:05AM 28.8861 -87.1772 298° West 389 448 35,900  Level Jacksonville Center
08:06AM 28.9367 -87.2836 299° West 389 448 35,900  Level Jacksonville Center
08:07AM 28.9872 -87.3881 299° West 389 448 35,900  Level Jacksonville Center
08:07AM 29.0167 -87.4503 298° West 385 443 35,900  Level Houston Center
08:08AM 29.0675 -87.5583 298° West 386 444 35,900  Level Houston Center
08:09AM 29.1178 -87.6667 298° West 385 443 35,900  Level Houston Center
08:10AM 29.1703 -87.7758 299° West 390 449 35,900  Level Houston Center
08:11AM 29.2219 -87.8878 298° West 396 456 35,900  Level Houston Center
08:12AM 29.2736 -87.9975 298° West 392 451 35,900  Level Houston Center
08:14AM 29.3264 -88.1114 298° West 395 455 35,900  Level Houston Center
08:15AM 29.3803 -88.2283 298° West 394 453 36,000  Climbing Houston Center
08:16AM 29.4311 -88.3386 298° West 392 451 36,000 -60 Level Houston Center
08:17AM 29.4800 -88.4431 298° West 392 451 35,900 -60 Descending Houston Center
08:18AM 29.5419 -88.5756 298° West 393 452 35,900  Level Houston Center
08:19AM 29.5922 -88.6869 297° West 394 453 35,900  Level Houston Center
08:20AM 29.6425 -88.7978 298° West 393 452 35,900  Level Houston Center
08:21AM 29.6928 -88.9089 298° West 393 452 35,900  Level Houston Center
08:22AM 29.7444 -89.0200 298° West 394 453 35,900  Level Houston Center
08:23AM 29.7936 -89.1308 297° West 390 449 35,900  Level Houston Center
08:24AM 29.8444 -89.2428 298° West 392 451 35,900  Level Houston Center
08:25AM 29.8944 -89.3533 298° West 390 449 35,900  Level Houston Center
08:26AM 29.9439 -89.4653 297° West 391 450 35,900  Level Houston Center
08:27AM 29.9942 -89.5767 298° West 391 450 35,900  Level Houston Center
08:28AM 30.0444 -89.6894 297° West 394 453 35,900  Level Houston Center
08:29AM 30.0939 -89.8033 297° West 394 453 35,900  Level Houston Center
08:30AM 30.1564 -89.9403 298° West 396 456 35,900  Level Houston Center
08:31AM 30.2069 -90.0542 297° West 394 453 35,900  Level Houston Center
08:32AM 30.2569 -90.1692 297° West 396 456 35,900  Level Houston Center
08:33AM 30.3081 -90.2833 297° West 397 457 35,900  Level Houston Center
08:34AM 30.3583 -90.3978 297° West 396 456 35,900  Level Houston Center
08:35AM 30.4072 -90.5125 296° West 395 455 35,900  Level Houston Center
08:36AM 30.4575 -90.6261 297° West 395 455 35,900 240 Level Houston Center
08:37AM 30.5069 -90.7389 297° West 393 452 36,500 840 Climbing Houston Center
08:38AM 30.5539 -90.8511 296° West 386 444 37,700 660 Climbing Houston Center
08:39AM 30.6025 -90.9625 297° West 389 448 37,900 60 Climbing Houston Center
08:40AM 30.6511 -91.0739 297° West 387 445 37,900  Level Houston Center
08:41AM 30.7008 -91.1875 297° West 392 451 37,900  Level Houston Center
08:42AM 30.7575 -91.3158 297° West 390 449 38,000  Climbing Houston Center
08:43AM 30.8028 -91.4269 295° West 383 441 38,000  Level Houston Center
08:44AM 30.8503 -91.5392 296° West 384 442 38,000  Level Houston Center
08:45AM 30.9250 -91.6367 312° West 402 463 38,000  Level Houston Center
08:46AM 31.0014 -91.7386 311° West 416 479 38,000  Level Houston Center
08:47AM 31.0792 -91.8392 312° West 418 481 38,000  Level Houston Center
08:48AM 31.1731 -91.9603 312° West 419 482 38,000 -60 Level Houston Center
08:49AM 31.2397 -92.0447 313° West 418 481 37,900 -60 Descending Houston Center
08:50AM 31.3364 -92.1642 313° West 422 486 37,900 -240 Level Houston Center
08:51AM 31.4175 -92.2661 313° West 428 493 37,500 -720 Descending Houston Center
08:52AM 31.4983 -92.3692 313° West 433 498 36,500 -840 Descending Houston Center
08:53AM 31.5531 -92.4881 298° West 417 480 35,900 -300 Descending Houston Center
08:54AM 31.6039 -92.6061 297° West 410 472 35,900  Level Houston Center
08:55AM 31.6556 -92.7256 297° West 411 473 35,900  Level Houston Center
08:56AM 31.7081 -92.8478 297° West 418 481 35,900  Level Houston Center
08:57AM 31.7611 -92.9717 297° West 423 487 35,900  Level Houston Center
08:58AM 31.8186 -93.1056 297° West 422 486 36,000  Climbing Houston Center
08:59AM 31.8717 -93.2281 297° West 421 484 35,900  Descending Houston Center
09:00AM 31.9133 -93.3314 295° West 420 483 36,000  Climbing Fort Worth Center
09:01AM 31.9675 -93.4586 297° West 420 483 36,000  Level Fort Worth Center
09:02AM 32.0217 -93.5836 297° West 425 489 36,000 -60 Level Fort Worth Center
09:03AM 32.0756 -93.7089 297° West 425 489 35,900  Descending Fort Worth Center
09:04AM 32.1336 -93.8464 297° West 425 489 36,000  Climbing Fort Worth Center
09:05AM 32.1742 -93.9478 295° West 425 489 36,000  Level Fort Worth Center
09:06AM 32.2344 -94.0953 296° West 416 479 36,000  Level Fort Worth Center
09:07AM 32.2833 -94.2164 296° West 421 484 36,000  Level Fort Worth Center
09:08AM 32.3367 -94.3447 296° West 421 484 36,000  Level Fort Worth Center
09:09AM 32.3878 -94.4661 297° West 421 484 36,000  Level Fort Worth Center
09:10AM 32.4408 -94.5950 296° West 421 484 36,000  Level Fort Worth Center
09:11AM 32.4872 -94.7167 294° West 421 484 36,000  Level Fort Worth Center
09:12AM 32.5378 -94.8358 297° West 416 479 36,000  Level Fort Worth Center
09:13AM 32.5861 -94.9578 295° West 416 479 36,000  Level Fort Worth Center
09:14AM 32.6278 -95.0675 294° West 416 479 36,100 540 Climbing Fort Worth Center
09:15AM 32.6614 -95.1900 288° West 402 463 37,100 840 Climbing Fort Worth Center
09:16AM 32.6992 -95.3297 288° West 402 463 37,800 420 Climbing Fort Worth Center
09:17AM 32.7306 -95.4575 286° West 402 463 38,000 60 Climbing Fort Worth Center
09:18AM 32.7597 -95.5878 285° West 402 463 38,000  Level Fort Worth Center
09:19AM 32.7883 -95.7008 287° West 402 463 38,000  Level Fort Worth Center
09:20AM 32.8150 -95.8264 284° West 395 455 38,000  Level Fort Worth Center
09:21AM 32.8458 -95.9544 286° West 395 455 38,000  Level Fort Worth Center
09:22AM 32.8786 -96.0800 287° West 395 455 38,000  Level Fort Worth Center
09:23AM 32.9069 -96.2058 285° West 400 460 38,000  Level Fort Worth Center
09:24AM 32.9372 -96.3367 285° West 400 460 38,000  Level Fort Worth Center
09:25AM 32.9678 -96.4775 285° West 400 460 38,000  Level Fort Worth Center
09:26AM 32.9978 -96.6058 286° West 400 460 38,000  Level Fort Worth Center
09:27AM 33.0278 -96.7344 286° West 405 466 38,000  Level Fort Worth Center
09:28AM 33.0575 -96.8631 285° West 405 466 38,000  Level Fort Worth Center
09:29AM 33.0872 -96.9944 285° West 405 466 38,000  Level Fort Worth Center
09:30AM 33.1169 -97.1233 285° West 405 466 38,000  Level Fort Worth Center
09:31AM 33.1483 -97.2522 286° West 410 472 38,000  Level Fort Worth Center
09:32AM 33.1758 -97.3836 284° West 410 472 38,000  Level Fort Worth Center
09:33AM 33.2050 -97.5153 285° West 410 472 38,000  Level Fort Worth Center
09:34AM 33.2339 -97.6419 285° West 410 472 38,000  Level Fort Worth Center
09:35AM 33.2608 -97.7711 284° West 410 472 38,000  Level Fort Worth Center
09:36AM 33.2894 -97.9031 285° West 410 472 38,000  Level Fort Worth Center
09:37AM 33.3161 -98.0325 284° West 416 479 38,000  Level Fort Worth Center
09:38AM 33.3425 -98.1494 285° West 411 473 38,000  Level Fort Worth Center
09:39AM 33.3731 -98.2939 284° West 411 473 38,000  Level Fort Worth Center
09:40AM 33.3992 -98.4136 285° West 417 480 38,000  Level Fort Worth Center
09:41AM 33.4272 -98.5433 285° West 412 474 38,000  Level Fort Worth Center
09:42AM 33.4553 -98.6733 285° West 406 467 38,000  Level Fort Worth Center
09:43AM 33.4831 -98.8008 285° West 406 467 38,000  Level Fort Worth Center
09:44AM 33.5089 -98.9306 283° West 406 467 38,000  Level Fort Worth Center
09:45AM 33.5383 -99.0608 285° West 406 467 38,000  Level Fort Worth Center
09:46AM 33.5617 -99.1883 282° West 406 467 38,000  Level Fort Worth Center
09:47AM 33.5892 -99.3161 285° West 400 460 38,000  Level Fort Worth Center
09:48AM 33.6164 -99.4389 285° West 395 455 38,000  Level Fort Worth Center
09:49AM 33.6394 -99.5617 283° West 395 455 38,000  Level Fort Worth Center
09:50AM 33.6664 -99.6919 284° West 395 455 38,000  Level Fort Worth Center
09:51AM 33.6931 -99.8175 284° West 395 455 38,000  Level Fort Worth Center
09:52AM 33.7178 -99.9481 283° West 395 455 38,000  Level Fort Worth Center
09:53AM 33.7422 -100.0736 283° West 395 455 38,000  Level Fort Worth Center
09:54AM 33.7686 -100.2044 284° West 395 455 38,000  Level Fort Worth Center
09:55AM 33.7928 -100.3353 283° West 395 455 38,000  Level Fort Worth Center
09:56AM 33.8189 -100.4611 284° West 395 455 38,000  Level Fort Worth Center
09:57AM 33.8450 -100.5919 284° West 400 460 38,000  Level Fort Worth Center
09:58AM 33.8708 -100.7231 283° West 400 460 38,000  Level Fort Worth Center
09:59AM 33.8944 -100.8489 283° West 395 455 38,000  Level Fort Worth Center
10:00AM 33.9222 -100.9778 285° West 395 455 38,000  Level Fort Worth Center
10:01AM 33.9475 -101.1164 282° West 406 467 38,000  Level Fort Worth Center
10:02AM 33.9722 -101.2628 282° West 406 467 38,000  Level Fort Worth Center
10:03AM 33.9972 -101.3917 283° West 400 460 38,000  Level Fort Worth Center
10:04AM 34.0203 -101.5181 282° West 390 449 38,000  Level Fort Worth Center
10:05AM 34.0433 -101.6419 283° West 390 449 38,000  Level Fort Worth Center
10:06AM 34.0664 -101.7658 283° West 390 449 38,000  Level Fort Worth Center
10:07AM 34.0911 -101.8925 283° West 390 449 38,000  Level Fort Worth Center
10:08AM 34.1094 -102.0164 280° West 384 442 38,000  Level Fort Worth Center
10:09AM 34.1319 -102.1381 283° West 378 435 38,000  Level Fort Worth Center
10:10AM 34.1533 -102.2461 283° West 375 432 38,000  Level Albuquerque Center
10:11AM 34.1747 -102.3669 282° West 373 429 38,000  Level Albuquerque Center
10:12AM 34.1958 -102.4872 282° West 370 426 38,000  Level Albuquerque Center
10:13AM 34.2172 -102.6036 283° West 371 427 38,000  Level Albuquerque Center
10:14AM 34.2433 -102.7533 282° West 377 434 38,000  Level Albuquerque Center
10:15AM 34.2644 -102.8778 282° West 377 434 38,000  Level Albuquerque Center
10:16AM 34.2867 -103.0025 282° West 378 435 38,000  Level Albuquerque Center
10:17AM 34.3056 -103.1167 281° West 376 433 38,000  Level Albuquerque Center
10:18AM 34.3317 -103.2642 282° West 380 437 38,000  Level Albuquerque Center
10:19AM 34.3528 -103.3894 282° West 377 434 38,000  Level Albuquerque Center
10:20AM 34.3739 -103.5147 282° West 376 433 38,000  Level Albuquerque Center
10:21AM 34.3947 -103.6383 282° West 374 430 38,000  Level Albuquerque Center
10:22AM 34.4139 -103.7631 281° West 372 428 38,000  Level Albuquerque Center
10:23AM 34.4344 -103.8853 282° West 370 426 38,000  Level Albuquerque Center
10:25AM 34.4547 -104.0058 282° West 365 420 38,000  Level Albuquerque Center
10:26AM 34.4747 -104.1269 281° West 363 418 38,000  Level Albuquerque Center
10:27AM 34.4944 -104.2486 281° West 362 417 38,000  Level Albuquerque Center
10:28AM 34.5139 -104.3706 281° West 363 418 38,000  Level Albuquerque Center
10:29AM 34.5336 -104.4928 281° West 365 420 38,000  Level Albuquerque Center
10:30AM 34.5539 -104.6142 281° West 364 419 38,000  Level Albuquerque Center
10:31AM 34.5725 -104.7350 281° West 362 417 38,000  Level Albuquerque Center
10:32AM 34.5953 -104.8769 281° West 362 417 38,000  Level Albuquerque Center
10:33AM 34.6136 -104.9969 281° West 360 414 38,000  Level Albuquerque Center
10:34AM 34.6319 -105.1172 281° West 358 412 38,000  Level Albuquerque Center
10:35AM 34.6503 -105.2364 281° West 357 411 38,000  Level Albuquerque Center
10:36AM 34.6689 -105.3561 281° West 357 411 38,000  Level Albuquerque Center
10:37AM 34.6875 -105.4742 281° West 354 407 38,000  Level Albuquerque Center
10:38AM 34.7050 -105.5925 280° West 353 406 38,000  Level Albuquerque Center
10:39AM 34.7225 -105.7094 280° West 350 403 38,000  Level Albuquerque Center
10:40AM 34.7397 -105.8253 280° West 347 399 38,000  Level Albuquerque Center
10:41AM 34.7575 -105.9428 280° West 349 402 38,000  Level Albuquerque Center
10:42AM 34.7733 -106.0608 279° West 350 403 38,000  Level Albuquerque Center
10:43AM 34.7933 -106.1981 280° West 350 403 38,000  Level Albuquerque Center
10:44AM 34.8086 -106.3003 280° West 348 400 38,000  Level Albuquerque Center
10:45AM 34.8256 -106.4183 280° West 352 405 38,000  Level Albuquerque Center
10:46AM 34.8456 -106.5600 280° West 356 410 38,000  Level Albuquerque Center
10:47AM 34.8592 -106.6789 278° West 367 422 38,000  Level Albuquerque Center
10:48AM 34.8786 -106.8108 280° West 357 411 38,000  Level Albuquerque Center
10:49AM 34.8972 -106.9225 282° West 351 404 38,000  Level Albuquerque Center
10:50AM 34.9125 -107.0378 279° West 359 413 38,000  Level Albuquerque Center
10:51AM 34.9317 -107.1725 280° West 362 417 38,000  Level Albuquerque Center
10:52AM 34.9456 -107.2950 278° West 373 429 38,000  Level Albuquerque Center
10:53AM 34.9625 -107.4186 280° West 370 426 38,000  Level Albuquerque Center
10:54AM 34.9800 -107.5433 280° West 371 427 38,000  Level Albuquerque Center
10:55AM 34.9967 -107.6681 279° West 372 428 38,000  Level Albuquerque Center
10:56AM 35.0119 -107.7933 279° West 374 430 38,000  Level Albuquerque Center
10:57AM 35.0308 -107.9294 280° West 374 430 38,000  Level Albuquerque Center
10:58AM 35.0489 -108.0694 279° West 374 430 38,000  Level Albuquerque Center
10:59AM 35.0647 -108.1894 279° West 373 429 38,000  Level Albuquerque Center
11:01AM 35.0817 -108.3292 278° West 372 428 38,000  Level Albuquerque Center
11:02AM 35.0972 -108.4483 279° West 371 427 38,000  Level Albuquerque Center
11:03AM 35.1147 -108.5867 279° West 370 426 38,000  Level Albuquerque Center
11:04AM 35.1297 -108.7069 279° West 371 427 38,000  Level Albuquerque Center
11:05AM 35.1442 -108.8258 278° West 371 427 38,000  Level Albuquerque Center
11:06AM 35.1614 -108.9647 279° West 370 426 38,000  Level Albuquerque Center
11:07AM 35.1756 -109.0833 278° West 368 423 38,000  Level Albuquerque Center
11:08AM 35.1931 -109.2225 279° West 368 423 38,000  Level Albuquerque Center
11:09AM 35.2064 -109.3406 278° West 367 422 38,000  Level Albuquerque Center
11:10AM 35.2217 -109.4769 278° West 363 418 38,000  Level Albuquerque Center
11:11AM 35.2361 -109.5925 279° West 359 413 38,000  Level Albuquerque Center
11:12AM 35.2492 -109.7100 278° West 362 417 38,000  Level Albuquerque Center
11:13AM 35.2650 -109.8472 278° West 365 420 38,000  Level Albuquerque Center
11:14AM 35.2781 -109.9681 278° West 371 427 38,000  Level Albuquerque Center
11:15AM 35.2944 -110.1033 278° West 365 420 38,000  Level Albuquerque Center
11:16AM 35.3058 -110.2206 277° West 363 418 38,000  Level Albuquerque Center
11:17AM 35.3181 -110.3575 276° West 363 418 38,000  Level Albuquerque Center
11:18AM 35.3306 -110.4769 277° West 368 423 38,000  Level Albuquerque Center
11:19AM 35.3447 -110.5961 278° West 369 425 38,000  Level Albuquerque Center
11:20AM 35.3572 -110.7347 276° West 368 423 38,000  Level Albuquerque Center
11:21AM 35.3700 -110.8553 277° West 371 427 38,000  Level Albuquerque Center
11:22AM 35.3853 -110.9933 278° West 368 423 38,000  Level Albuquerque Center
11:23AM 35.3992 -111.1114 278° West 367 422 38,000  Level Albuquerque Center
11:24AM 35.4122 -111.2478 277° West 362 417 38,000 -1,020 Level Albuquerque Center
11:25AM 35.4236 -111.3633 277° West 359 413 35,900 -2,040 Descending Albuquerque Center
11:27AM 35.4483 -111.5983 277° West 353 406 31,800 -1,920 Descending Albuquerque Center
11:28AM 35.4611 -111.7322 277° West 337 388 30,000 -900 Descending Albuquerque Center
11:29AM 35.4717 -111.8478 276° West 338 389 30,000  Level Albuquerque Center
11:30AM 35.4844 -111.9700 277° West 352 405 30,000  Level Albuquerque Center
11:31AM 35.4964 -112.0928 277° West 360 414 30,000  Level Albuquerque Center
11:33AM 35.5078 -112.2156 277° West 362 417 30,000  Level Albuquerque Center
11:34AM 35.5214 -112.3625 277° West 364 419 30,000  Level Albuquerque Center
11:35AM 35.5350 -112.5094 277° West 365 420 30,000  Level Los Angeles Center
11:36AM 35.5464 -112.6383 276° West 366 421 30,000  Level Los Angeles Center
11:37AM 35.5578 -112.7628 276° West 366 421 30,000  Level Los Angeles Center
11:38AM 35.5689 -112.8889 276° West 370 426 30,000  Level Los Angeles Center
11:39AM 35.5808 -113.0239 276° West 368 423 30,000  Level Los Angeles Center
11:40AM 35.5911 -113.1467 276° West 362 417 30,000 -60 Level Los Angeles Center
11:41AM 35.6025 -113.2700 277° West 363 418 29,900 -840 Descending Los Angeles Center
11:42AM 35.6114 -113.3864 275° West 352 405 28,300 -1,920 Descending Los Angeles Center
11:43AM 35.6222 -113.5194 276° West 331 381 26,000 -2,040 Descending Los Angeles Center
11:44AM 35.6353 -113.6244 279° West 318 366 24,100 -1,740 Descending Los Angeles Center
11:45AM 35.6511 -113.7253 281° West 305 351 22,500 -1,740 Descending Los Angeles Center
11:46AM 35.6661 -113.8314 280° West 314 361 20,600 -1,800 Descending Los Angeles Center
11:47AM 35.6803 -113.9394 279° West 322 371 18,800 -1,680 Descending Los Angeles Center
11:48AM 35.6956 -114.0436 280° West 313 360 17,200 -1,800 Descending Los Angeles Center
11:49AM 35.7139 -114.1764 280° West 315 362 15,100 -1,980 Descending Los Angeles Center
11:50AM 35.7236 -114.2231 284° West 323 372 14,300 -1,800 Descending Los Angeles Center
11:50AM 35.7286 -114.2639 279° West 318 366 13,600 -1,380 Descending Los Angeles Center
11:51AM 35.7639 -114.3528 296° West 305 351 12,400 -1,140 Descending Los Angeles Center
11:52AM 35.8228 -114.4233 316° Northwest 299 344 11,400 -1,080 Descending Los Angeles Center
11:53AM 35.8825 -114.4961 315° West 299 344 10,300 -1,080 Descending Los Angeles Center
11:53AM 35.8917 -114.5072 316° Northwest 298 343 10,100 -1,140 Descending Los Angeles Center
11:54AM 35.9422 -114.5692 315° West 283 326 9,200 -1,020 Descending Los Angeles Center
11:54AM 35.9458 -114.5742 312° West 282 325 9,100 -1,020 Descending Los Angeles Center
11:55AM 35.9789 -114.6472 299° West 270 311 8,200 -1,080 Descending Los Angeles Center
11:55AM 35.9872 -114.6731 292° West 273 314 8,000 -900 Descending Los Angeles Center
11:56AM 36.0042 -114.7317 290° West 262 302 7,300 -900 Descending Los Angeles Center
11:56AM 36.0125 -114.7550 294° West 260 299 7,100 -600 Descending Los Angeles Center
11:57AM 36.0303 -114.8108 292° West 252 290 6,700 -600 Descending Los Angeles Center
11:57AM 36.0378 -114.8319 294° West 253 291 6,500 -720 Descending Los Angeles Center
11:58AM 36.0503 -114.8919 284° West 221 254 5,900 -900 Descending Los Angeles Center
11:59AM 36.0556 -114.9033 300° West 236 272 5,600 -1,260 Descending Los Angeles Center
11:59AM 36.0619 -114.9547 279° West 207 238 4,800 -1,080 Descending Los Angeles Center
12:00PM 36.0658 -114.9706 287° West 217 250 4,500 -900 Descending Los Angeles Center
12:00PM 36.0736 -115.0175 282° West 182 209 3,900 -960 Descending Los Angeles Center
12:01PM 36.0761 -115.0317 282° West 199 229 3,500 -900 Descending Los Angeles Center
12:01PM 36.0722 -115.0711 263° West 149 171 3,000 -780 Descending Los Angeles Center
12:02PM 36.0736 -115.0822 279° West 168 193 2,700 -720 Descending Los Angeles Center
12:03PM 36.0742 -115.1403 271° West 148 170 2,000 -720 Descending Los Angeles Center
12:05PM 36.0667 -115.1500 270° West  Level FlightAware Approximate